Welcome to our Virtual Airline
Sign-in:

Flight MFC107101

  • Submitted By: James Smith
  • Departure Airport: Nikolski As (PAKO)
  • Arrival Airport: Chernofski Harbor (KCN)
  • Aircraft: CESSNA 185 (N016MM)
  • Flight Time: 00.39.35
  • Date Submitted: 22/02/15
  • Route: STOP PAUA
  • Status: Accepted
Flight Details
Gross Revenue:
(3 load / $ 57.00 per unit
$ 171.00
Fuel Cost:
(19.0509 fuel used @ 5.1 / unit)
$ 97.16

Additional Log Information:

View Log

[16:48] ----- Flight Opened -----
[16:48] Cigar Box - 1.1.4.0
[16:48] FS: Prepar3D V4
[16:48] FSUIPC: v6.106
[16:48] Flight Number: MFC107101
[16:48] FS Aircraft: C185F SKYWAGON AMPHIBIAN
[16:48] FS Model: C185
[16:48] FS Type: Cessna
[16:48] Departure: PAKO
[16:48] Arrival: KCN
[16:48] Flight Level: 1500
[16:48] Flight Type: H
[16:48] Passengers: 3
[16:48] FOB: 192 lbs
[16:48] Gate: n/a
[16:48] NOTE: Parking Brake Ignored
[16:48] Crash Detection: Disabled
[16:48] Crash Detection Aircraft: Disabled
[16:48] Engines: 1 Piston
[16:48] NOTE: Boarding has started
[16:48] Flaps: Position 0
[16:48] Main Door Closed
[16:49] COM1: 124.85
[16:49] COM2: 124.85
[16:49] Transponder: 1234
[16:49] NAV1: 110.50
[16:49] NAV2: 110.50
[16:49] ADF1: 890.0
[16:49] ADF2: 890.0
[16:49] Navigation Mode: NAV
[16:49] Engine 1: Started
[16:49] Flaps: Position 1
[16:50] Light Data: Navigation ON
[16:50] Light Data: Beacon ON
[16:50] NOTE: Taxi started
[16:50] NOTE: ----- TAKE OFF -----
[16:50] GS: 66 knots
[16:50] TAS: 67 knots
[16:50] IAS: 66 knots
[16:50] VS: 0 fpm
[16:50] FOB: 191 lbs
[16:50] Heading: 61°
[16:50] Pitch: 1°
[16:50] Bank: 0°
[16:50] Aircraft Weight: 2296.70 lbs
[16:50] Nearest Airport: IKO
[16:50] Distance: 0.13 miles
[16:50] Runway: ???
[16:50] Ground Surface: Gravel
[16:50] Ground Condition: Snow
[16:50] NOTE: Weather Report
[16:50] Wind Heading: 350°
[16:50] Wind Speed: 0 knots
[16:50] OAT: 16° C
[16:50] TAT: 16° C
[16:50] Precipitation: None
[16:50] Dew Point: 6° C
[16:50] Visibility: 62 miles
[16:50] METAR:
[16:50] NOTE: Climb started
[16:51] Flaps: Position 0
[16:51] GS: 89 knots
[16:51] TAS: 91 knots
[16:51] IAS: 90 knots
[16:51] VS: 1036 fpm
[16:51] View Mode: Virtual Cockpit
[16:52] Autopilot: Engaged
[16:52] AGL: 1250 ft
[16:52] AMSL: 1591 ft
[16:52] NOTE: TOC reached
[16:52] NOTE: Cruise started
[16:52] GS: 101 knots
[16:52] TAS: 102 knots
[16:52] IAS: 99 knots
[16:52] VS: 196 fpm
[16:52] FOB: 188 lbs
[16:52] Heading: 47°
[16:52] Pitch: 0°
[16:52] Bank: 0°
[16:52] Aircraft Weight: 2293.26 lbs
[16:53] NOTE: TOD reached
[16:53] NOTE: Descent started
[16:53] GS: 118 knots
[16:53] TAS: 119 knots
[16:53] IAS: 117 knots
[16:53] VS: -1141 fpm
[16:53] FOB: 187 lbs
[16:53] Heading: 49°
[16:53] Pitch: 4°
[16:53] Bank: 0°
[16:53] Aircraft Weight: 2292.47 lbs
[16:53] NOTE: On approach
[16:56] Landing Gear: Retracted
[16:56] GS: 106 knots
[16:56] TAS: 110 knots
[16:56] IAS: 107 knots
[16:56] VS: 0 fpm
[16:56] AGL: 1204 ft
[16:56] AMSL: 1397 ft
[17:12] Autopilot: Disengaged
[17:12] AGL: 2349 ft
[17:12] AMSL: 2690 ft
[17:14] Landing Gear: Extended
[17:14] GS: 95 knots
[17:14] TAS: 97 knots
[17:14] IAS: 95 knots
[17:14] VS: -1156 fpm
[17:14] AGL: 1043 ft
[17:14] AMSL: 1151 ft
[17:15] Flaps: Position 1
[17:15] GS: 91 knots
[17:15] TAS: 92 knots
[17:15] IAS: 91 knots
[17:15] VS: -755 fpm
[17:15] Flaps: Position 2
[17:15] GS: 83 knots
[17:15] TAS: 85 knots
[17:15] IAS: 84 knots
[17:15] VS: -116 fpm
[17:15] Flaps: Position 3
[17:15] GS: 66 knots
[17:15] TAS: 67 knots
[17:15] IAS: 67 knots
[17:15] VS: -321 fpm
[17:16] NOTE: ----- LANDED -----
[17:16] Landing Rate: -299.89 fpm
[17:16] GS: 48 knots
[17:16] TAS: 48 knots
[17:16] IAS: 48 knots
[17:16] VS: -297 fpm
[17:16] FOB: 160 lbs
[17:16] Heading: 197°
[17:16] Pitch: 3°
[17:16] Bank: 0°
[17:16] Aircraft Weight: 2264.80 lbs
[17:16] Nearest Airport: PAUA
[17:16] Distance: 0.08 miles
[17:16] Runway: ???
[17:16] Ground Surface: Grass Bumpy
[17:16] Ground Condition: Snow
[17:16] NOTE: Weather Report
[17:16] Wind Heading: 349°
[17:16] Wind Speed: 0 knots
[17:16] OAT: 16° C
[17:16] TAT: 16° C
[17:16] Precipitation: None
[17:16] Dew Point: 6° C
[17:16] Visibility: 62 miles
[17:16] METAR: KCNK 152055Z AUTO 18018G34KT 10SM CLR 18/M04 A2966 RMK AO2 PK WND 19036/2040 SLP046 T01831044 58045 KCNC 152135Z AUTO 16014G21KT 10SM CLR 13/00 A2982 RMK AO2 KCNO 152053Z 21013G19KT 10SM FEW028 BKN043 BKN065 17/07 A2980 RMK AO2 SLP088 60000 T01670072 58039 KCNU 152052Z AUTO 18028G41KT 10SM CLR 18/00 A2989 RMK AO2 PK WND 17041/2049 SLP120 T01830000 56043 $ KCNY 152053Z AUTO 24007KT 10SM OVC110 14/M15 A2967 RMK AO2 SLP036 T01391150 $ KCNW 152055Z 17017G28KT 10SM SCT045 23/07 A3008 KCNI 152135Z AUTO 16003KT 10SM CLR 16/M06 A3045 RMK AO2 KCNM 152053Z AUTO 10SM CLR 25/M17 A2983 RMK AO2 SLP072 T02501172 58040 $ KCNB 152135Z AUTO 12008KT 10SM CLR 04/M03 A2968 RMK AO2 T00371026
[17:16] View Mode: Virtual Cockpit
[17:17] NOTE: Taxi started
[17:17] Flaps: Position 2
[17:17] Flaps: Position 1
[17:18] Landing Gear: Retracted
[17:18] GS: 69 knots
[17:18] TAS: 71 knots
[17:18] IAS: 71 knots
[17:18] VS: 699 fpm
[17:18] AGL: 157 ft
[17:18] AMSL: 232 ft
[17:18] View Mode: Virtual Cockpit
[17:19] Flaps: Position 0
[17:19] GS: 71 knots
[17:19] TAS: 72 knots
[17:19] IAS: 71 knots
[17:19] VS: 760 fpm
[17:20] COM1: 122.90
[17:24] Flaps: Position 1
[17:24] GS: 87 knots
[17:24] TAS: 88 knots
[17:24] IAS: 88 knots
[17:24] VS: -193 fpm
[17:24] Flaps: Position 2
[17:24] GS: 81 knots
[17:24] TAS: 82 knots
[17:24] IAS: 82 knots
[17:24] VS: 72 fpm
[17:26] Flaps: Position 3
[17:26] GS: 64 knots
[17:26] TAS: 64 knots
[17:26] IAS: 64 knots
[17:26] VS: -151 fpm
[17:27] NOTE: ----- LANDED -----
[17:27] Landing Rate: -66.90 fpm
[17:27] GS: 48 knots
[17:27] TAS: 49 knots
[17:27] IAS: 49 knots
[17:27] VS: -67 fpm
[17:27] FOB: 150 lbs
[17:27] Heading: 101°
[17:27] Pitch: 3°
[17:27] Bank: 0°
[17:27] Aircraft Weight: 2255.87 lbs
[17:27] Nearest Airport: KCN
[17:27] Distance: 1.06 miles
[17:27] Runway: ???
[17:27] Ground Surface: Water
[17:27] Ground Condition: Snow
[17:27] NOTE: Weather Report
[17:27] Wind Heading: 350°
[17:27] Wind Speed: 0 knots
[17:27] OAT: 16° C
[17:27] TAT: 16° C
[17:27] Precipitation: None
[17:27] Dew Point: 6° C
[17:27] Visibility: 62 miles
[17:27] METAR: KCNK 152055Z AUTO 18018G34KT 10SM CLR 18/M04 A2966 RMK AO2 PK WND 19036/2040 SLP046 T01831044 58045 KCNC 152135Z AUTO 16014G21KT 10SM CLR 13/00 A2982 RMK AO2 KCNO 152053Z 21013G19KT 10SM FEW028 BKN043 BKN065 17/07 A2980 RMK AO2 SLP088 60000 T01670072 58039 KCNU 152052Z AUTO 18028G41KT 10SM CLR 18/00 A2989 RMK AO2 PK WND 17041/2049 SLP120 T01830000 56043 $ KCNY 152053Z AUTO 24007KT 10SM OVC110 14/M15 A2967 RMK AO2 SLP036 T01391150 $ KCNW 152055Z 17017G28KT 10SM SCT045 23/07 A3008 KCNI 152135Z AUTO 16003KT 10SM CLR 16/M06 A3045 RMK AO2 KCNM 152053Z AUTO 10SM CLR 25/M17 A2983 RMK AO2 SLP072 T02501172 58040 $ KCNB 152135Z AUTO 12008KT 10SM CLR 04/M03 A2968 RMK AO2 T00371026
[17:27] View Mode: Virtual Cockpit
[17:29] Engine 1: Stopped
[17:29] Gate: n/a
[17:29] NOTE: Flight Completed
[17:29] FS Aircraft: C185F SKYWAGON AMPHIBIAN
[17:29] FS Model: C185
[17:29] FS Type: Cessna
[17:29] FOB: 150 lbs
[17:29] Fuel Used: 42 lbs
[17:29] Flight Time: 00:39:35
[17:29] Flight Time (Dawn): 00:00:00
[17:29] Flight Time (Day): 00:39:35
[17:29] Flight Time (Dusk): 00:00:00
[17:29] Flight Time (Night): 00:00:00
[17:29] Total Landings: 2
[17:29] MaxSim Rate: 1x
[17:29] Cigar Box - 1.1.4.0
[17:29] ----- Flight Closed -----

Route Map